createdAt,value
2023-02-28T00:02:46.008Z,18.00
2023-02-28T00:06:10.467Z,18.00
2023-02-28T00:09:32.871Z,18.00
2023-02-28T00:12:59.812Z,18.00
2023-02-28T00:16:23.501Z,18.00
2023-02-28T00:19:45.875Z,18.00
2023-02-28T00:23:09.108Z,18.00
2023-02-28T00:26:31.402Z,18.00
2023-02-28T00:29:55.137Z,18.00
2023-02-28T00:33:17.457Z,18.00
2023-02-28T00:36:39.889Z,17.90
2023-02-28T00:40:02.232Z,17.90
2023-02-28T00:43:24.695Z,17.90
2023-02-28T00:46:47.091Z,17.90
2023-02-28T00:50:10.556Z,17.90
2023-02-28T00:53:33.809Z,17.90
2023-02-28T00:56:56.175Z,17.90
2023-02-28T01:00:18.866Z,17.90
2023-02-28T01:03:41.494Z,17.90
2023-02-28T01:07:03.899Z,17.90
2023-02-28T01:10:28.653Z,17.90
2023-02-28T01:13:51.259Z,17.90
2023-02-28T01:17:13.648Z,17.90
2023-02-28T01:20:38.534Z,17.90
2023-02-28T01:24:00.807Z,17.80
2023-02-28T01:27:23.163Z,17.90
2023-02-28T01:30:49.666Z,17.90
2023-02-28T01:34:11.963Z,17.90
2023-02-28T01:37:34.247Z,17.90
2023-02-28T01:40:56.560Z,17.90
2023-02-28T01:44:58.905Z,17.80
2023-02-28T01:48:26.908Z,17.80
2023-02-28T01:51:55.773Z,17.80
2023-02-28T01:55:22.172Z,17.80
2023-02-28T01:58:44.530Z,17.80
2023-02-28T02:02:07.047Z,17.80
2023-02-28T02:05:32.231Z,17.80
2023-02-28T02:08:54.636Z,17.80
2023-02-28T02:12:48.771Z,17.80
2023-02-28T02:16:48.356Z,17.80
2023-02-28T02:20:33.166Z,17.80
2023-02-28T02:24:26.993Z,17.80
2023-02-28T02:28:26.842Z,17.80
2023-02-28T02:32:15.249Z,17.80
2023-02-28T02:35:55.694Z,17.70
2023-02-28T02:39:28.742Z,17.70
2023-02-28T02:42:59.906Z,17.70
2023-02-28T02:46:29.810Z,17.70
2023-02-28T02:49:56.060Z,17.70
2023-02-28T02:53:25.410Z,17.70
2023-02-28T02:56:50.572Z,17.70
2023-02-28T03:00:15.118Z,17.70
2023-02-28T03:03:37.968Z,17.70
2023-02-28T03:07:00.263Z,17.70
2023-02-28T03:10:37.839Z,17.70
2023-02-28T03:14:11.382Z,17.70
2023-02-28T03:17:53.955Z,17.70
2023-02-28T03:21:25.134Z,17.70
2023-02-28T03:25:09.603Z,17.60
2023-02-28T03:29:08.805Z,17.70
2023-02-28T03:32:37.689Z,17.70
2023-02-28T03:36:09.936Z,17.60
2023-02-28T03:39:38.892Z,17.60
2023-02-28T03:43:10.730Z,17.60
2023-02-28T03:46:37.716Z,17.60
2023-02-28T03:50:10.913Z,17.60
2023-02-28T03:53:47.688Z,17.60
2023-02-28T03:57:27.858Z,17.50
2023-02-28T04:00:58.147Z,17.60
2023-02-28T04:04:20.473Z,17.50
2023-02-28T04:07:42.830Z,17.50
2023-02-28T04:11:16.355Z,17.60
2023-02-28T04:14:38.625Z,17.60
2023-02-28T04:18:00.974Z,17.60
2023-02-28T04:21:23.341Z,17.50
2023-02-28T04:24:45.929Z,17.50
2023-02-28T04:28:08.336Z,17.50
2023-02-28T04:31:31.184Z,17.50
2023-02-28T04:34:53.670Z,17.50
2023-02-28T04:38:15.948Z,17.50
2023-02-28T04:41:38.732Z,17.50
2023-02-28T04:45:00.960Z,17.50
2023-02-28T04:48:28.725Z,17.50
2023-02-28T04:51:50.996Z,17.50
2023-02-28T04:55:13.321Z,17.50
2023-02-28T04:58:36.090Z,17.50
2023-02-28T05:01:58.532Z,17.50
2023-02-28T05:05:20.857Z,17.50
2023-02-28T05:08:43.355Z,17.50
2023-02-28T05:12:05.709Z,17.50
2023-02-28T05:15:28.119Z,17.50
2023-02-28T05:18:50.408Z,17.60
2023-02-28T05:22:20.274Z,17.70
2023-02-28T05:25:42.841Z,17.80
2023-02-28T05:29:06.161Z,17.90
2023-02-28T05:32:28.532Z,17.90
2023-02-28T05:35:50.886Z,18.00
2023-02-28T05:39:13.978Z,18.00
2023-02-28T05:42:36.713Z,18.00
2023-02-28T05:45:58.970Z,18.10
2023-02-28T05:49:21.328Z,18.10
2023-02-28T05:52:43.629Z,18.20
2023-02-28T05:56:06.063Z,18.20
2023-02-28T05:59:28.286Z,18.20
2023-02-28T06:02:50.563Z,18.30
2023-02-28T06:06:12.758Z,18.30
2023-02-28T06:09:35.420Z,18.40
2023-02-28T06:13:01.653Z,18.30
2023-02-28T06:16:25.304Z,18.40
2023-02-28T06:19:48.986Z,18.30
2023-02-28T06:23:11.317Z,18.30
2023-02-28T06:26:33.587Z,18.40
2023-02-28T06:29:58.977Z,18.30
2023-02-28T06:33:21.629Z,18.30
2023-02-28T06:36:44.314Z,18.30
2023-02-28T06:40:07.880Z,18.30
2023-02-28T06:43:32.674Z,18.30
2023-02-28T06:46:55.081Z,18.20
2023-02-28T06:50:20.490Z,18.30
2023-02-28T06:53:42.930Z,18.20
2023-02-28T06:57:05.747Z,18.20
2023-02-28T07:00:28.005Z,18.20
2023-02-28T07:03:53.296Z,18.30
2023-02-28T07:07:15.533Z,18.30
2023-02-28T07:10:41.338Z,18.40
2023-02-28T07:14:03.624Z,18.40
2023-02-28T07:17:26.456Z,18.40
2023-02-28T07:20:48.738Z,18.40
2023-02-28T07:24:11.514Z,18.50
2023-02-28T07:27:35.207Z,18.50
2023-02-28T07:30:57.926Z,18.50
2023-02-28T07:34:21.250Z,18.60
2023-02-28T07:37:43.897Z,18.60
2023-02-28T07:41:06.217Z,18.60
2023-02-28T07:44:28.623Z,18.60
2023-02-28T07:47:50.918Z,18.70
2023-02-28T07:51:13.483Z,18.70
2023-02-28T07:54:35.925Z,18.80
2023-02-28T07:57:58.981Z,18.80
2023-02-28T08:01:21.311Z,18.80
2023-02-28T08:04:44.190Z,18.80
2023-02-28T08:08:06.759Z,18.80
2023-02-28T08:11:29.321Z,18.80
2023-02-28T08:14:51.746Z,18.80
2023-02-28T08:18:14.067Z,18.80
2023-02-28T08:21:36.322Z,18.80
2023-02-28T08:24:58.585Z,18.80
2023-02-28T08:28:20.813Z,18.80
2023-02-28T08:31:43.577Z,18.80
2023-02-28T08:35:06.338Z,18.80
2023-02-28T08:38:28.661Z,18.90
2023-02-28T08:42:02.088Z,18.80
2023-02-28T08:45:29.131Z,18.90
2023-02-28T08:48:55.661Z,18.90
2023-02-28T08:52:18.012Z,19.10
2023-02-28T08:55:40.296Z,19.20
2023-02-28T08:59:02.563Z,19.50
2023-02-28T09:02:24.900Z,19.60
2023-02-28T09:05:57.859Z,20.70
2023-02-28T09:09:20.146Z,21.70
2023-02-28T09:12:42.442Z,22.20
2023-02-28T09:16:07.237Z,21.90
2023-02-28T09:19:29.498Z,20.40
2023-02-28T09:22:51.782Z,21.10
2023-02-28T09:26:26.597Z,21.60
2023-02-28T09:29:48.946Z,21.40
2023-02-28T09:33:11.228Z,21.10
2023-02-28T09:36:43.618Z,20.90
2023-02-28T09:40:07.538Z,20.60
2023-02-28T09:43:38.941Z,19.90
2023-02-28T09:47:25.490Z,19.50
2023-02-28T09:50:51.756Z,19.30
2023-02-28T09:54:19.853Z,19.10
2023-02-28T09:57:43.293Z,19.00
2023-02-28T10:01:20.875Z,19.00
2023-02-28T10:04:43.194Z,18.80
2023-02-28T10:08:19.224Z,18.70
2023-02-28T10:11:42.314Z,18.50
2023-02-28T10:15:06.434Z,18.40
2023-02-28T10:18:38.247Z,18.60
2023-02-28T10:22:25.495Z,18.70
2023-02-28T10:26:01.213Z,18.70
2023-02-28T10:29:23.670Z,18.70
2023-02-28T10:32:55.535Z,18.70
2023-02-28T10:36:20.783Z,18.70
2023-02-28T10:39:47.380Z,18.70
2023-02-28T10:43:15.762Z,18.70
2023-02-28T10:46:41.629Z,18.70
2023-02-28T10:50:04.324Z,18.70
2023-02-28T10:53:36.064Z,18.70
2023-02-28T10:57:22.870Z,18.70
2023-02-28T11:00:45.158Z,18.70
2023-02-28T11:04:23.733Z,18.60
2023-02-28T11:07:57.078Z,18.60
2023-02-28T11:11:21.071Z,18.60
2023-02-28T11:14:55.793Z,18.60
2023-02-28T11:18:31.652Z,18.60
2023-02-28T11:21:58.411Z,18.60
2023-02-28T11:25:29.537Z,18.60
2023-02-28T11:29:09.718Z,18.50
2023-02-28T11:32:32.559Z,18.60
2023-02-28T11:36:00.181Z,18.60
2023-02-28T11:39:22.497Z,18.60
2023-02-28T11:43:07.898Z,18.60
2023-02-28T11:46:42.203Z,18.50
2023-02-28T11:50:19.623Z,18.50
2023-02-28T11:53:48.082Z,18.50
2023-02-28T11:57:39.165Z,18.50
2023-02-28T12:01:10.874Z,18.50
2023-02-28T12:05:07.873Z,18.50
2023-02-28T12:08:42.814Z,18.60
2023-02-28T12:12:38.889Z,18.60
2023-02-28T12:16:25.476Z,18.60
2023-02-28T12:20:10.014Z,18.60
2023-02-28T12:24:16.936Z,18.50
2023-02-28T12:27:43.688Z,18.50
2023-02-28T12:31:12.690Z,18.60
2023-02-28T12:34:43.283Z,18.60
2023-02-28T12:38:15.602Z,18.50
2023-02-28T12:41:46.350Z,18.60
2023-02-28T12:45:23.133Z,18.60
2023-02-28T12:48:49.347Z,18.60
2023-02-28T12:52:14.690Z,18.60
2023-02-28T12:56:04.826Z,18.60
2023-02-28T12:59:43.380Z,18.60
2023-02-28T13:04:02.807Z,18.60
2023-02-28T13:07:39.589Z,18.60
2023-02-28T13:11:03.760Z,18.60
2023-02-28T13:14:31.451Z,18.60
2023-02-28T13:17:56.046Z,18.60
2023-02-28T13:21:31.918Z,18.60
2023-02-28T13:24:58.726Z,18.60
2023-02-28T13:28:58.700Z,18.60
2023-02-28T13:32:31.236Z,18.60
2023-02-28T13:36:10.264Z,18.60
2023-02-28T13:39:36.364Z,18.50
2023-02-28T13:42:58.844Z,18.50
2023-02-28T13:46:21.206Z,18.60
2023-02-28T13:49:43.568Z,18.50
2023-02-28T13:53:14.906Z,18.50
2023-02-28T13:56:48.722Z,18.50
2023-02-28T14:00:19.689Z,18.40
2023-02-28T14:04:04.413Z,18.50
2023-02-28T14:07:36.464Z,18.40
2023-02-28T14:11:24.311Z,18.40
2023-02-28T14:14:46.720Z,18.40
2023-02-28T14:18:27.384Z,18.40
2023-02-28T14:22:13.794Z,18.40
2023-02-28T14:25:57.516Z,18.40
2023-02-28T14:29:37.904Z,18.40
2023-02-28T14:33:15.175Z,18.40
2023-02-28T14:36:40.355Z,18.40
2023-02-28T14:40:05.385Z,18.30
2023-02-28T14:43:29.448Z,18.30
2023-02-28T14:46:55.158Z,18.40
2023-02-28T14:50:30.646Z,18.30
2023-02-28T14:53:59.723Z,18.30
2023-02-28T14:57:25.231Z,18.30
2023-02-28T15:00:54.543Z,18.30
2023-02-28T15:04:34.098Z,18.30
2023-02-28T15:08:27.034Z,18.30
2023-02-28T15:11:51.282Z,18.30
2023-02-28T15:15:18.110Z,18.30
2023-02-28T15:18:49.319Z,18.30
2023-02-28T15:22:19.093Z,18.20
2023-02-28T15:25:42.793Z,18.20
2023-02-28T15:29:13.820Z,18.20
2023-02-28T15:32:39.701Z,18.20
2023-02-28T15:36:30.378Z,18.20
2023-02-28T15:39:54.562Z,18.20
2023-02-28T15:43:19.054Z,18.20
2023-02-28T15:46:44.830Z,18.20
2023-02-28T15:50:15.035Z,18.20
2023-02-28T15:53:46.358Z,18.20
2023-02-28T15:57:14.256Z,18.20
2023-02-28T16:00:36.626Z,18.20
2023-02-28T16:04:21.908Z,18.20
2023-02-28T16:07:44.600Z,18.20
2023-02-28T16:11:10.912Z,18.20
2023-02-28T16:14:33.361Z,18.10
2023-02-28T16:17:57.124Z,18.10
2023-02-28T16:21:19.689Z,18.10
2023-02-28T16:24:42.583Z,18.10
2023-02-28T16:28:07.821Z,18.10
2023-02-28T16:31:31.428Z,18.10
2023-02-28T16:34:53.869Z,18.10
2023-02-28T16:38:16.130Z,18.10
2023-02-28T16:41:38.499Z,18.10
2023-02-28T16:45:00.913Z,18.10
2023-02-28T16:48:23.253Z,18.10
2023-02-28T16:51:45.555Z,18.00
2023-02-28T16:55:08.356Z,18.00
2023-02-28T16:58:30.802Z,18.00
2023-02-28T17:01:53.709Z,18.00
2023-02-28T17:05:16.222Z,18.00
2023-02-28T17:08:38.653Z,18.00
2023-02-28T17:12:00.944Z,18.00
2023-02-28T17:15:23.293Z,18.00
2023-02-28T17:18:45.866Z,18.00
2023-02-28T17:22:09.429Z,18.00
2023-02-28T17:25:31.699Z,18.10
2023-02-28T17:28:56.691Z,18.00
2023-02-28T17:32:19.105Z,18.00
2023-02-28T17:35:41.504Z,18.00
2023-02-28T17:39:06.377Z,18.00
2023-02-28T17:42:28.621Z,18.00
2023-02-28T17:45:51.477Z,18.00
2023-02-28T17:49:13.898Z,18.00
2023-02-28T17:52:37.760Z,18.00
2023-02-28T17:55:59.995Z,18.00
2023-02-28T17:59:22.368Z,18.10
2023-02-28T18:02:45.051Z,18.20
2023-02-28T18:06:08.151Z,18.20
2023-02-28T18:09:30.361Z,18.30
2023-02-28T18:12:53.294Z,18.40
2023-02-28T18:16:16.075Z,18.40
2023-02-28T18:19:39.033Z,18.50
2023-02-28T18:23:01.419Z,18.50
2023-02-28T18:26:24.142Z,18.50
2023-02-28T18:29:46.358Z,18.60
2023-02-28T18:33:08.622Z,18.70
2023-02-28T18:36:31.348Z,18.80
2023-02-28T18:39:54.157Z,18.90
2023-02-28T18:43:16.411Z,19.00
2023-02-28T18:46:38.824Z,19.00
2023-02-28T18:50:01.990Z,19.00
2023-02-28T18:53:24.436Z,19.00
2023-02-28T18:56:46.741Z,19.00
2023-02-28T19:00:09.952Z,19.00
2023-02-28T19:03:32.359Z,19.00
2023-02-28T19:06:54.608Z,19.00
2023-02-28T19:10:17.537Z,19.00
2023-02-28T19:13:40.098Z,19.00
2023-02-28T19:17:02.443Z,19.00
2023-02-28T19:20:24.826Z,19.00
2023-02-28T19:23:47.255Z,19.00
2023-02-28T19:27:09.528Z,19.00
2023-02-28T19:30:31.799Z,19.10
2023-02-28T19:33:54.273Z,19.10
2023-02-28T19:37:16.579Z,19.00
2023-02-28T19:40:39.533Z,19.00
2023-02-28T19:44:01.871Z,19.00
2023-02-28T19:47:24.114Z,19.00
2023-02-28T19:50:46.340Z,18.90
2023-02-28T19:54:08.611Z,18.90
2023-02-28T19:57:30.821Z,18.90
2023-02-28T20:00:53.172Z,18.90
2023-02-28T20:04:15.447Z,18.90
2023-02-28T20:07:37.779Z,18.90
2023-02-28T20:11:08.419Z,18.90
2023-02-28T20:14:30.878Z,18.80
2023-02-28T20:17:53.212Z,18.80
2023-02-28T20:21:16.572Z,18.80
2023-02-28T20:24:38.903Z,18.80
2023-02-28T20:28:01.153Z,18.70
2023-02-28T20:31:25.685Z,18.80
2023-02-28T20:34:48.051Z,18.80
2023-02-28T20:38:11.302Z,18.80
2023-02-28T20:41:33.610Z,18.80
2023-02-28T20:44:55.846Z,18.70
2023-02-28T20:48:18.183Z,18.80
2023-02-28T20:51:42.204Z,18.70
2023-02-28T20:55:05.051Z,18.80
2023-02-28T20:58:30.381Z,18.80
2023-02-28T21:01:52.988Z,18.80
2023-02-28T21:05:15.319Z,18.80
2023-02-28T21:08:38.645Z,18.70
2023-02-28T21:12:00.900Z,18.70
2023-02-28T21:15:23.594Z,18.60
2023-02-28T21:18:46.136Z,18.60
2023-02-28T21:22:08.400Z,18.60
2023-02-28T21:25:30.734Z,18.50
2023-02-28T21:28:55.886Z,18.50
2023-02-28T21:32:18.158Z,18.50
2023-02-28T21:35:40.526Z,18.50
2023-02-28T21:39:09.929Z,18.50
2023-02-28T21:42:32.319Z,18.50
2023-02-28T21:45:54.536Z,18.50
2023-02-28T21:49:16.880Z,18.50
2023-02-28T21:52:39.095Z,18.40
2023-02-28T21:56:02.678Z,18.40
2023-02-28T21:59:24.918Z,18.40
2023-02-28T22:02:47.247Z,18.40
2023-02-28T22:06:13.958Z,18.40
2023-02-28T22:09:36.516Z,18.40
2023-02-28T22:13:01.837Z,18.40
2023-02-28T22:16:26.630Z,18.30
2023-02-28T22:19:49.317Z,18.30
2023-02-28T22:23:11.610Z,18.30
2023-02-28T22:26:33.916Z,18.30
2023-02-28T22:29:56.788Z,18.30
2023-02-28T22:33:19.552Z,18.30
2023-02-28T22:36:42.950Z,18.30
2023-02-28T22:40:05.799Z,18.30
2023-02-28T22:43:28.461Z,18.30
2023-02-28T22:46:54.731Z,18.30
2023-02-28T22:50:17.243Z,18.30
2023-02-28T22:53:39.749Z,18.20
2023-02-28T22:57:02.062Z,18.20
2023-02-28T23:00:24.392Z,18.20
2023-02-28T23:03:47.087Z,18.20
2023-02-28T23:07:09.445Z,18.20
2023-02-28T23:10:31.939Z,18.20
2023-02-28T23:14:00.893Z,18.20
2023-02-28T23:17:23.211Z,18.20
2023-02-28T23:20:45.470Z,18.20
2023-02-28T23:24:12.854Z,18.10
2023-02-28T23:27:35.101Z,18.20
2023-02-28T23:31:04.426Z,18.20
2023-02-28T23:34:30.513Z,18.20
2023-02-28T23:37:52.898Z,18.30
2023-02-28T23:41:15.933Z,18.30
2023-02-28T23:44:38.509Z,18.20
2023-02-28T23:48:00.805Z,18.20
2023-02-28T23:51:23.090Z,18.20
2023-02-28T23:54:45.430Z,18.10
2023-02-28T23:58:07.670Z,18.00
